Stormwatcher's Retreat Logo




                  Temp     Hi    Low   Out    Dew  Wind  Wind   Wind    Hi    Hi   Wind   Heat    THW   THSW                Rain  Solar   Solar Hi Solar   UV    UV    Hi     Heat    Cool    In     In    In     In     In   In Air          Wind  Wind    ISS   Arc.
  Date    Time     Out   Temp   Temp   Hum    Pt. Speed   Dir    Run Speed   Dir  Chill  Index  Index  Index   Bar    Rain  Rate   Rad.  Energy    Rad.  Index  Dose   UV     D-D     D-D    Temp   Hum    Dew   Heat    EMC Density     ET   Samp   Tx   Recept  Int.
------------------------------------------------------------------------------------------------------------------------------------------------------------------------------------------------------------------------------------------------------------------------
 5/03/26 12:10a   50.4   50.4   50.3    96   49.3   5.0   NNE   0.83   9.0   NNE   48.7   50.9   49.2   46.1  29.898  0.00  0.00     0     0.00      0     0.0  0.00   0.0   0.101   0.000   72.2    50   52.5   71.4   9.25  .0736    0.000   200    7    100.0   10 
 5/03/26 12:20a   50.3   50.5   50.3    96   49.2   3.0    NE   0.50   8.0   NNE   50.0   50.8   50.5   47.4  29.896  0.00  0.00     0     0.00      0     0.0  0.00   0.0   0.102   0.000   72.2    50   52.5   71.4   9.25  .0736    0.000   201    7    100.0   10 
 5/03/26 12:30a   50.0   50.3   49.9    96   48.9   4.0    NE   0.67   8.0   NNE   48.9   50.5   49.4   46.2  29.894  0.00  0.00     0     0.00      0     0.0  0.00   0.0   0.104   0.000   72.2    50   52.5   71.4   9.25  .0736    0.000   203    7    100.0   10 
 5/03/26 12:40a   50.3   50.3   50.0    96   49.2   4.0   NNE   0.67   8.0   NNE   49.2   50.8   49.7   46.6  29.894  0.00  0.00     0     0.00      0     0.0  0.00   0.0   0.102   0.000   72.1    50   52.4   71.2   9.25  .0736    0.000   203    7    100.0   10 
 5/03/26 12:50a   50.1   50.3   50.1    96   49.0   4.0    NE   0.67   8.0   NNE   49.0   50.6   49.5   46.4  29.895  0.00  0.00     0     0.00      0     0.0  0.00   0.0   0.103   0.000   72.1    50   52.4   71.2   9.25  .0736    0.000   202    7    100.0   10 
 5/03/26  1:00a   50.0   50.2   50.0    96   48.9   2.0   NNE   0.33   7.0     N   50.0   50.5   50.5   47.3  29.891  0.00  0.00     0     0.00      0     0.0  0.00   0.0   0.104   0.000   72.0    50   52.3   71.1   9.25  .0736    0.000   203    7    100.0   10 
 5/03/26  1:10a   50.0   50.0   49.9    97   49.2   3.0    NE   0.50   6.0     N   49.7   50.6   50.3   47.2  29.886  0.00  0.00     0     0.00      0     0.0  0.00   0.0   0.104   0.000   72.0    50   52.3   71.1   9.25  .0736    0.000   204    7    100.0   10 
 5/03/26  1:20a   49.9   50.0   49.9    97   49.1   3.0    NE   0.50   7.0   NNE   49.6   50.5   50.2   47.1  29.885  0.00  0.00     0     0.00      0     0.0  0.00   0.0   0.105   0.000   72.0    50   52.3   71.1   9.25  .0736    0.000   203    7    100.0   10 
 5/03/26  1:30a   49.7   50.0   49.7    96   48.6   3.0   NNE   0.50   6.0   NNE   49.3   50.2   49.8   46.6  29.883  0.00  0.00     0     0.00      0     0.0  0.00   0.0   0.106   0.000   71.9    50   52.2   70.9   9.25  .0736    0.000   204    7    100.0   10 
 5/03/26  1:40a   49.9   49.9   49.5    97   49.1   2.0    NE   0.33   4.0    NE   49.9   50.5   50.5   47.4  29.880  0.00  0.00     0     0.00      0     0.0  0.00   0.0   0.105   0.000   71.8    50   52.2   70.8   9.25  .0736    0.000   202    7    100.0   10 
 5/03/26  1:50a   50.2   50.2   49.9    97   49.4   2.0   NNE   0.33   5.0     N   50.2   50.8   50.8   47.7  29.878  0.00  0.00     0     0.00      0     0.0  0.00   0.0   0.103   0.000   71.8    50   52.2   70.8   9.25  .0736    0.000   203    7    100.0   10 
 5/03/26  2:00a   50.3   50.3   50.1    97   49.5   2.0    NE   0.33   5.0    NE   50.3   50.9   50.9   47.8  29.874  0.00  0.00     0     0.00      0     0.0  0.00   0.0   0.102   0.000   71.8    50   52.2   70.8   9.25  .0736    0.000   203    7    100.0   10 
 5/03/26  2:10a   50.6   50.6   50.3    97   49.8   2.0    NE   0.33   4.0    NE   50.6   51.1   51.1   48.0  29.870  0.00  0.00     0     0.00      0     0.0  0.00   0.0   0.100   0.000   71.8    50   52.2   70.8   9.25  .0736    0.000   201    7    100.0   10 
 5/03/26  2:20a   50.3   50.6   50.3    96   49.2   0.0    NE   0.00   4.0    NE   50.3   50.8   50.8   47.7  29.869  0.00  0.00     0     0.00      0     0.0  0.00   0.0   0.102   0.000   71.7    50   52.1   70.6   9.25  .0736    0.000   201    7    100.0   10 
 5/03/26  2:30a   50.3   50.4   50.2    97   49.5   1.0    NE   0.17   3.0    NE   50.3   50.9   50.9   47.8  29.865  0.00  0.00     0     0.00      0     0.0  0.00   0.0   0.102   0.000   71.6    50   52.0   70.5   9.25  .0736    0.000   202    7    100.0   10 
 5/03/26  2:40a   49.6   50.3   49.6    96   48.5   3.0     N   0.50   7.0   NNE   49.2   50.1   49.7   46.5  29.863  0.00  0.00     0     0.00      0     0.0  0.00   0.0   0.107   0.000   71.6    50   52.0   70.5   9.25  .0736    0.000   204    7    100.0   10 
 5/03/26  2:50a   49.4   49.6   49.3    97   48.6   3.0     N   0.50   5.0     N   49.0   50.0   49.6   46.4  29.863  0.00  0.00     0     0.00      0     0.0  0.00   0.0   0.108   0.000   71.6    50   52.0   70.5   9.25  .0736    0.000   203    7    100.0   10 
 5/03/26  3:00a   49.3   49.4   49.3    96   48.2   1.0     N   0.17   4.0   NNE   49.3   49.8   49.8   46.6  29.866  0.00  0.00     0     0.00      0     0.0  0.00   0.0   0.109   0.000   71.6    50   52.0   70.5   9.25  .0736    0.000   203    7    100.0   10 
 5/03/26  3:10a   49.6   49.6   49.2    97   48.8   0.0     N   0.00   2.0     N   49.6   50.2   50.2   47.0  29.863  0.00  0.00     0     0.00      0     0.0  0.00   0.0   0.107   0.000   71.5    50   51.9   70.3   9.25  .0736    0.000   200    7    100.0   10 
 5/03/26  3:20a   49.6   49.7   49.6    97   48.8   1.0     N   0.17   3.0     N   49.6   50.2   50.2   47.0  29.861  0.00  0.00     0     0.00      0     0.0  0.00   0.0   0.107   0.000   71.5    50   51.9   70.3   9.25  .0736    0.000   201    7    100.0   10 
 5/03/26  3:30a   49.6   49.7   49.5    97   48.8   1.0     N   0.17   3.0     N   49.6   50.2   50.2   47.0  29.858  0.00  0.00     0     0.00      0     0.0  0.00   0.0   0.107   0.000   71.4    50   51.8   70.2   9.25  .0736    0.000   202    7    100.0   10 
 5/03/26  3:40a   49.6   49.7   49.6    97   48.8   1.0     N   0.17   4.0   NNW   49.6   50.2   50.2   47.0  29.853  0.00  0.00     0     0.00      0     0.0  0.00   0.0   0.107   0.000   71.4    50   51.8   70.2   9.25  .0736    0.000   200    7    100.0   10 
 5/03/26  3:50a   49.6   49.7   49.6    97   48.8   2.0   WSW   0.33   6.0     W   49.6   50.2   50.2   47.0  29.855  0.00  0.00     0     0.00      0     0.0  0.00   0.0   0.107   0.000   71.3    50   51.7   70.1   9.25  .0736    0.000   200    7    100.0   10 
 5/03/26  4:00a   49.6   49.6   49.5    97   48.8   1.0     W   0.17   4.0   WNW   49.6   50.2   50.2   47.0  29.859  0.00  0.00     0     0.00      0     0.0  0.00   0.0   0.107   0.000   71.3    49   51.1   70.0   9.05  .0736    0.000   204    7    100.0   10 
 5/03/26  4:10a   49.9   49.9   49.5    97   49.1   3.0     W   0.50   6.0     W   49.6   50.5   50.2   47.1  29.859  0.00  0.00     0     0.00      0     0.0  0.00   0.0   0.105   0.000   71.2    49   51.1   69.8   9.05  .0737    0.000   202    7    100.0   10 
 5/03/26  4:20a   49.8   49.9   49.8    97   49.0   1.0   NNE   0.17   5.0     S   49.8   50.4   50.4   47.2  29.857  0.00  0.00     0     0.00      0     0.0  0.00   0.0   0.106   0.000   71.2    49   51.1   69.8   9.05  .0737    0.000   204    7    100.0   10 
 5/03/26  4:30a   49.4   49.9   49.4    97   48.6   1.0   ENE   0.17   3.0   ENE   49.4   50.0   50.0   46.8  29.853  0.00  0.00     0     0.00      0     0.0  0.00   0.0   0.108   0.000   71.1    49   51.0   69.6   9.05  .0737    0.000   204    7    100.0   10 
 5/03/26  4:40a   49.5   49.6   49.4    97   48.7   3.0   ENE   0.50   7.0   NNE   49.1   50.1   49.7   46.5  29.855  0.00  0.00     0     0.00      0     0.0  0.00   0.0   0.108   0.000   71.1    49   51.0   69.6   9.05  .0737    0.000   202    7    100.0   10 
 5/03/26  4:50a   49.6   49.7   49.5    97   48.8   4.0   NNE   0.67   9.0   NNE   48.4   50.2   49.0   45.8  29.857  0.00  0.00     0     0.00      0     0.0  0.00   0.0   0.107   0.000   71.1    49   51.0   69.6   9.05  .0737    0.000   203    7    100.0   10 
 5/03/26  5:00a   50.1   50.1   49.6    97   49.3   1.0   ESE   0.17   4.0   WSW   50.1   50.7   50.7   47.6  29.852  0.00  0.00     0     0.00      0     0.0  0.00   0.0   0.103   0.000   71.0    49   50.9   69.5   9.05  .0737    0.000   203    7    100.0   10 
 5/03/26  5:10a   50.0   50.2   49.9    97   49.2   1.0     W   0.17   3.0     W   50.0   50.6   50.6   47.5  29.848  0.00  0.00     0     0.00      0     0.0  0.00   0.0   0.104   0.000   71.0    49   50.9   69.5   9.05  .0737    0.000   203    7    100.0   10 
 5/03/26  5:20a   49.8   50.0   49.8    97   49.0   3.0   NNE   0.50   5.0   ENE   49.5   50.4   50.1   46.9  29.846  0.00  0.00     0     0.00      0     0.0  0.00   0.0   0.106   0.000   71.0    49   50.9   69.5   9.05  .0737    0.000   201    7    100.0   10 
 5/03/26  5:30a   49.7   49.8   49.7    97   48.9   1.0   NNE   0.17   2.0   NNE   49.7   50.3   50.3   47.1  29.840  0.00  0.00     0     0.00      0     0.0  0.00   0.0   0.106   0.000   70.9    49   50.8   69.4   9.05  .0737    0.000   203    7    100.0   10 
 5/03/26  5:40a   49.8   49.9   49.7    97   49.0   1.0   NNE   0.17   4.0   NNE   49.8   50.4   50.4   47.2  29.842  0.00  0.00     0     0.00      0     0.0  0.00   0.0   0.106   0.000   70.9    49   50.8   69.4   9.05  .0737    0.000   203    7    100.0   10 
 5/03/26  5:50a   49.8   49.9   49.7    97   49.0   1.0   NNE   0.17   3.0   NNE   49.8   50.4   50.4   47.2  29.843  0.00  0.00     0     0.00      0     0.0  0.00   0.0   0.106   0.000   70.8    49   50.7   69.2   9.05  .0737    0.000   204    7    100.0   10 
 5/03/26  6:00a   49.7   49.8   49.7    97   48.9   2.0    NW   0.33   4.0     W   49.7   50.3   50.3   47.1  29.842  0.00  0.00     0     0.00      0     0.0  0.00   0.0   0.106   0.000   70.8    49   50.7   69.2   9.05  .0737    0.000   202    7    100.0   10 
 5/03/26  6:10a   49.2   49.7   49.2    97   48.4   2.0   NNW   0.33   4.0   NNW   49.2   49.7   49.7   46.6  29.840  0.00  0.00     5     0.07      9     0.0  0.00   0.0   0.110   0.000   70.8    49   50.7   69.2   9.05  .0737    0.000   203    7    100.0   10 
 5/03/26  6:20a   48.7   49.1   48.7    97   47.9   2.0     N   0.33   4.0     N   48.7   49.2   49.2   46.3  29.837  0.00  0.00    12     0.17     14     0.0  0.00   0.0   0.113   0.000   70.7    49   50.6   69.1   9.05  .0737    0.000   203    7    100.0   10 
 5/03/26  6:30a   48.9   48.9   48.7    97   48.1   2.0     N   0.33   4.0   NNW   48.9   49.4   49.4   46.6  29.834  0.00  0.00    17     0.24     19     0.0  0.00   0.0   0.112   0.000   70.7    49   50.6   69.1   9.05  .0737    0.000   203    7    100.0   10 
 5/03/26  6:40a   51.7   51.7   48.9    99   51.4   2.0   ENE   0.33   7.0     E   51.7   52.2   52.2   49.7  29.836  0.00  0.00    22     0.32     25     0.0  0.00   0.0   0.092   0.000   70.8    50   51.2   69.3   9.25  .0737    0.000   200    7    100.0   10 
 5/03/26  6:50a   51.6   52.6   51.6    98   51.1   4.0    NE   0.67  10.0   NNE   50.7   52.1   51.2   48.7  29.835  0.00  0.00    26     0.37     28     0.0  0.00   0.0   0.093   0.000   70.9    50   51.3   69.5   9.25  .0736    0.000   204    7    100.0   10 
 5/03/26  7:00a   50.6   51.9   50.6    97   49.8   3.0    SW   0.50   7.0    NE   50.4   51.1   50.9   48.5  29.840  0.00  0.00    31     0.44     32     0.0  0.00   0.0   0.100   0.000   71.0    50   51.4   69.6   9.25  .0736    0.000   201    7    100.0   10 
 5/03/26  7:10a   50.0   50.6   49.9    97   49.2   1.0   WSW   0.17   4.0     W   50.0   50.6   50.6   48.2  29.848  0.00  0.00    34     0.49     35     0.0  0.00   0.0   0.104   0.000   71.0    50   51.4   69.6   9.25  .0736    0.000   201    7    100.0   10 
 5/03/26  7:20a   50.9   50.9   50.0    98   50.4   2.0    SW   0.33   5.0   SSE   50.9   51.4   51.4   49.2  29.850  0.00  0.00    39     0.56     40     0.0  0.00   0.0   0.098   0.000   71.1    50   51.5   69.8   9.25  .0736    0.000   202    7    100.0   10 
 5/03/26  7:30a   50.8   51.2   50.8    97   50.0   6.0     S   1.00   9.0   SSW   48.7   51.3   49.2   47.3  29.854  0.00  0.00    57     0.82    100     0.0  0.00   0.0   0.099   0.000   71.1    50   51.5   69.8   9.25  .0736    0.000   205    7    100.0   10 
 5/03/26  7:40a   51.2   51.2   50.8    98   50.7   5.0     S   0.83   8.0   SSW   49.6   51.7   50.1   51.1  29.854  0.00  0.00   192     2.75    234     0.0  0.00   0.0   0.096   0.000   71.2    49   51.1   69.8   9.05  .0736    0.000   201    7    100.0   10 
 5/03/26  7:50a   51.6   51.6   51.1    98   51.1   5.0     S   0.83   9.0     S   50.1   52.1   50.6   58.9  29.855  0.00  0.00   250     3.58    265     0.0  0.00   0.5   0.093   0.000   71.2    49   51.1   69.8   9.05  .0736    0.000   204    7    100.0   10 
 5/03/26  8:00a   52.3   52.3   51.6    98   51.8   5.0     S   0.83   8.0     S   50.9   52.7   51.3   60.6  29.854  0.00  0.00   284     4.07    297     0.5  0.04   0.6   0.088   0.000   71.2    49   51.1   69.8   9.05  .0736    0.003   203    7    100.0   10 
 5/03/26  8:10a   53.2   53.2   52.2    98   52.7   4.0     S   0.67   7.0     S   52.5   53.6   52.9   63.0  29.852  0.00  0.00   316     4.53    330     0.6  0.04   0.7   0.082   0.000   71.1    49   51.0   69.6   9.05  .0737    0.000   204    7    100.0   10 
 5/03/26  8:20a   54.6   54.6   53.2    98   54.0   1.0   SSE   0.17   5.0   SSE   54.6   54.9   54.9   65.7  29.853  0.00  0.00   345     4.95    359     0.7  0.05   0.8   0.072   0.000   71.1    49   51.0   69.6   9.05  .0737    0.000   204    7    100.0   10 
 5/03/26  8:30a   52.9   54.8   52.9    97   52.1   2.0    SW   0.33   4.0   SSE   52.9   53.2   53.2   64.4  29.856  0.00  0.00   371     5.32    388     0.9  0.06   0.9   0.084   0.000   71.1    49   51.0   69.6   9.05  .0737    0.000   203    7    100.0   10 
 5/03/26  8:40a   51.5   52.8   51.5    97   50.7   3.0     S   0.50   6.0   SSE   51.4   51.9   51.8   63.1  29.858  0.00  0.00   399     5.72    413     1.0  0.07   1.0   0.094   0.000   71.1    49   51.0   69.6   9.05  .0737    0.000   198    7    100.0   10 
 5/03/26  8:50a   51.3   51.5   51.2    97   50.5   4.0     S   0.67   7.0     S   50.4   51.8   50.9   62.4  29.860  0.00  0.00   426     6.11    439     1.1  0.08   1.2   0.095   0.000   71.1    49   51.0   69.6   9.05  .0737    0.000   203    7    100.0   10 
 5/03/26  9:00a   51.5   51.6   51.3    97   50.7   3.0   SSW   0.50   6.0     S   51.4   51.9   51.8   63.6  29.859  0.00  0.00   457     6.55    475     1.3  0.09   1.3   0.094   0.000   71.1    49   51.0   69.6   9.05  .0737    0.007   204    7    100.0   10 
 5/03/26  9:10a   51.8   51.9   51.4    97   51.0   3.0     S   0.50   6.0   SSE   51.7   52.2   52.1   64.0  29.861  0.00  0.00   486     6.97    497     1.4  0.10   1.5   0.092   0.000   71.1    49   51.0   69.6   9.05  .0737    0.000   204    7    100.0   10 
 5/03/26  9:20a   51.7   52.0   51.6    97   50.9   2.0    SW   0.33   4.0     S   51.7   52.1   52.1   64.0  29.863  0.00  0.00   511     7.33    534     1.6  0.11   1.7   0.092   0.000   71.1    49   51.0   69.6   9.05  .0737    0.000   203    7    100.0   10 
 5/03/26  9:30a   51.8   52.0   51.7    97   51.0   2.0   SSE   0.33   5.0   SSE   51.8   52.2   52.2   64.3  29.863  0.00  0.00   543     7.78    563     1.8  0.13   1.9   0.092   0.000   71.1    49   51.0   69.6   9.05  .0737    0.000   203    7    100.0   10 
 5/03/26  9:40a   51.5   51.8   51.5    97   50.7   3.0    SW   0.50   5.0    SW   51.4   51.9   51.8   64.1  29.862  0.00  0.00   575     8.24    584     2.0  0.14   2.1   0.094   0.000   71.2    49   51.1   69.8   9.05  .0737    0.000   202    7    100.0   10 
 5/03/26  9:50a   51.7   51.7   51.5    97   50.9   3.0    SW   0.50   6.0    SW   51.6   52.1   52.0   64.3  29.862  0.00  0.00   603     8.64    613     2.2  0.16   2.3   0.092   0.000   71.2    49   51.1   69.8   9.05  .0737    0.000   203    7    100.0   10 
 5/03/26 10:00a   51.8   51.8   51.6    97   51.0   3.0    SW   0.50   4.0    SW   51.7   52.2   52.1   64.4  29.864  0.00  0.00   630     9.03    643     2.4  0.17   2.5   0.092   0.000   71.2    49   51.1   69.8   9.05  .0737    0.010   200    7    100.0   10 
 5/03/26 10:10a   51.9   51.9   51.7    97   51.1   2.0    SW   0.33   4.0    SW   51.9   52.3   52.3   64.7  29.866  0.00  0.00   659     9.45    668     2.7  0.19   2.8   0.091   0.000   71.3    49   51.1   70.0   9.05  .0737    0.000   201    7    100.0   10 
 5/03/26 10:20a   51.9   52.1   51.9    97   51.1   3.0    SW   0.50   5.0    SW   51.8   52.3   52.2   64.5  29.868  0.00  0.00   678     9.72    689     2.9  0.21   3.0   0.091   0.000   71.3    49   51.1   70.0   9.05  .0737    0.000   199    7    100.0   10 
 5/03/26 10:30a   52.2   52.2   51.8    97   51.4   3.0    SW   0.50   6.0   SSE   52.1   52.6   52.5   64.7  29.868  0.00  0.00   698    10.01    707     3.1  0.22   3.2   0.089   0.000   71.4    49   51.2   70.1   9.05  .0736    0.000   202    7    100.0   10 
 5/03/26 10:40a   52.3   52.4   52.2    97   51.5   3.0    SW   0.50   5.0     S   52.2   52.7   52.6   64.7  29.868  0.00  0.00   718    10.29    735     3.3  0.24   3.4   0.088   0.000   71.4    49   51.2   70.1   9.05  .0736    0.000   201    7    100.0   10 
 5/03/26 10:50a   52.1   52.3   52.1    97   51.3   3.0   SSW   0.50   5.0    SW   52.0   52.5   52.4   64.5  29.868  0.00  0.00   742    10.64    751     3.5  0.25   3.6   0.090   0.000   71.5    49   51.3   70.3   9.05  .0736    0.000   201    7    100.0   10 
 5/03/26 11:00a   52.4   52.4   52.1    97   51.6   3.0    SW   0.50   6.0    SW   52.3   52.8   52.7   64.7  29.869  0.00  0.00   760    10.89    766     3.8  0.27   3.9   0.087   0.000   71.5    49   51.3   70.3   9.05  .0736    0.013   202    7    100.0   10 
 5/03/26 11:10a   52.2   52.4   52.2    97   51.4   4.0   SSW   0.67   8.0    SE   51.4   52.6   51.8   63.6  29.871  0.00  0.00   774    11.10    782     3.9  0.28   4.0   0.089   0.000   71.6    49   51.4   70.4   9.05  .0736    0.000   202    7    100.0   10 
 5/03/26 11:20a   52.2   52.2   52.1    97   51.4   5.0   SSW   0.83   8.0   SSE   50.8   52.6   51.2   62.9  29.874  0.00  0.00   789    11.31    798     4.1  0.29   4.2   0.089   0.000   71.7    49   51.5   70.5   9.05  .0736    0.000   205    7    100.0   10 
 5/03/26 11:30a   52.3   52.4   52.2    97   51.5   4.0     S   0.67   9.0   SSE   51.5   52.7   51.9   63.5  29.873  0.00  0.00   805    11.54    814     4.3  0.31   4.4   0.088   0.000   71.7    49   51.5   70.5   9.05  .0736    0.000   201    7    100.0   10 
 5/03/26 11:40a   52.8   52.9   52.4    97   52.0   2.0    SW   0.33   5.0   SSE   52.8   53.1   53.1   64.8  29.871  0.00  0.00   824    11.81    833     4.5  0.32   4.6   0.085   0.000   71.8    49   51.6   70.7   9.05  .0736    0.000   202    7    100.0   10 
 5/03/26 11:50a   52.7   53.1   52.7    97   51.9   3.0    SW   0.50   7.0   SSE   52.7   53.1   53.1   64.7  29.873  0.00  0.00   839    12.03    844     4.7  0.34   4.8   0.085   0.000   71.9    49   51.7   70.9   9.05  .0736    0.000   203    7    100.0   10 
 5/03/26 12:00p   52.5   52.7   52.4    97   51.7   4.0    SW   0.67   6.0   SSW   51.8   52.9   52.2   63.7  29.873  0.00  0.00   849    12.17    853     4.9  0.35   4.9   0.087   0.000   71.9    49   51.7   70.9   9.05  .0736    0.015   204    7    100.0   10 
 5/03/26 12:10p   52.3   52.5   52.3    97   51.5   4.0   SSW   0.67   5.0    SW   51.5   52.7   51.9   63.3  29.870  0.00  0.00   856    12.27    865     5.0  0.36   5.0   0.088   0.000   72.0    49   51.8   71.0   9.05  .0735    0.000   203    7    100.0   10 
 5/03/26 12:20p   52.3   52.3   52.2    97   51.5   3.0   SSW   0.50   6.0    SW   52.2   52.7   52.6   63.9  29.869  0.00  0.00   860    12.33    863     5.1  0.36   5.1   0.088   0.000   72.1    50   52.4   71.2   9.25  .0735    0.000   201    7    100.0   10 
 5/03/26 12:30p   52.6   52.6   52.3    97   51.8   3.0   SSW   0.50   5.0   SSE   52.6   53.0   53.0   64.3  29.862  0.00  0.00   868    12.44    872     5.2  0.37   5.2   0.086   0.000   72.2    50   52.5   71.4   9.25  .0735    0.000   201    7    100.0   10 
 5/03/26 12:40p   52.7   52.7   52.5    97   51.9   4.0    SW   0.67   5.0    SW   52.0   53.1   52.4   63.6  29.863  0.00  0.00   873    12.51    877     5.3  0.38   5.3   0.085   0.000   72.2    50   52.5   71.4   9.25  .0735    0.000   205    7    100.0   10 
 5/03/26 12:50p   53.0   53.1   52.7    97   52.2   3.0   SSW   0.50   5.0   SSW   53.0   53.3   53.3   64.5  29.862  0.00  0.00   875    12.54    877     5.4  0.39   5.4   0.083   0.000   72.2    50   52.5   71.4   9.25  .0735    0.000   202    7    100.0   10 
 5/03/26  1:00p   53.2   53.2   52.9    97   52.4   2.0   SSW   0.33   4.0   SSW   53.2   53.5   53.5   64.7  29.857  0.00  0.00   876    12.56    879     5.6  0.40   5.7   0.082   0.000   72.2    50   52.5   71.4   9.25  .0735    0.016   203    7    100.0   10 
 5/03/26  1:10p   53.3   53.5   53.2    97   52.5   3.0   SSW   0.50   5.0   SSW   53.3   53.6   53.6   64.8  29.859  0.00  0.00   878    12.59    881     5.7  0.41   5.8   0.081   0.000   72.3    50   52.6   71.5   9.25  .0735    0.000   202    7    100.0   10 
 5/03/26  1:20p   53.4   53.7   53.3    96   52.3   4.0   SSW   0.67   8.0   SSE   52.8   53.7   53.1   64.3  29.859  0.00  0.00   878    12.59    881     5.7  0.41   5.7   0.081   0.000   72.5    50   52.8   71.8   9.25  .0734    0.000   202    7    100.0   10 
 5/03/26  1:30p   53.3   53.4   53.2    97   52.5   4.0     S   0.67   6.0   SSE   52.7   53.6   53.0   64.2  29.860  0.00  0.00   876    12.56    879     5.6  0.40   5.6   0.081   0.000   72.5    50   52.8   71.8   9.25  .0734    0.000   204    7    100.0   10 
 5/03/26  1:40p   53.7   53.7   53.4    97   52.9   4.0   SSW   0.67   6.0    SW   53.1   54.0   53.4   64.6  29.856  0.00  0.00   873    12.51    875     5.5  0.39   5.5   0.078   0.000   72.6    50   52.9   71.9   9.25  .0734    0.000   202    7    100.0   10 
 5/03/26  1:50p   53.7   53.8   53.7    96   52.6   5.0     S   0.83   8.0    SE   52.5   54.0   52.8   63.9  29.858  0.00  0.00   867    12.43    872     5.5  0.39   5.5   0.078   0.000   72.7    50   53.0   72.1   9.25  .0734    0.000   204    7    100.0   10 
 5/03/26  2:00p   53.6   53.8   53.6    96   52.5   5.0     S   0.83   7.0   ESE   52.4   53.9   52.7   63.8  29.859  0.00  0.00   856    12.27    861     5.4  0.39   5.4   0.079   0.000   72.7    50   53.0   72.1   9.25  .0734    0.016   203    7    100.0   10 
 5/03/26  2:10p   53.6   53.7   53.5    96   52.5   5.0   SSW   0.83   7.0    SE   52.4   53.9   52.7   63.8  29.859  0.00  0.00   846    12.13    854     5.3  0.38   5.3   0.079   0.000   72.8    50   53.1   72.2   9.25  .0734    0.000   202    7    100.0   10 
 5/03/26  2:20p   53.4   53.6   53.4    96   52.3   5.0     S   0.83   8.0    SE   52.2   53.7   52.5   63.6  29.858  0.00  0.00   837    12.00    842     5.1  0.36   5.2   0.081   0.000   72.8    49   52.5   72.1   9.05  .0734    0.000   203    7    100.0   10 
 5/03/26  2:30p   53.2   53.5   53.1    96   52.1   5.0   SSW   0.83   9.0   SSE   51.9   53.5   52.2   63.3  29.857  0.00  0.00   827    11.86    830     5.0  0.36   5.1   0.082   0.000   72.7    50   53.0   72.1   9.25  .0734    0.000   205    7    100.0   10 
 5/03/26  2:40p   52.6   53.2   52.5    96   51.5   7.0     S   1.17  10.0     S   50.3   52.9   50.6   61.4  29.860  0.00  0.00   809    11.60    837     4.9  0.35   4.9   0.086   0.000   72.3    50   52.6   71.5   9.25  .0735    0.000   203    7    100.0   10 
 5/03/26  2:50p   52.3   52.6   52.3    96   51.2   7.0     S   1.17  10.0   SSE   50.0   52.6   50.3   61.0  29.857  0.00  0.00   789    11.31    819     4.6  0.33   4.8   0.088   0.000   71.9    50   52.2   70.9   9.25  .0735    0.000   200    7    100.0   10 
 5/03/26  3:00p   52.1   52.4   52.1    96   51.0   8.0     S   1.33  12.0   SSW   49.0   52.4   49.3   59.2  29.858  0.00  0.00   753    10.79    803     4.3  0.31   4.5   0.090   0.000   72.0    50   52.3   71.1   9.25  .0735    0.015   202    7    100.0   10 
 5/03/26  3:10p   51.9   52.1   51.8    97   51.1   8.0     S   1.33  14.0   SSE   48.8   52.3   49.2   59.1  29.853  0.00  0.00   732    10.49    800     4.1  0.29   4.3   0.091   0.000   72.2    50   52.5   71.4   9.25  .0735    0.000   203    7    100.0   10 
 5/03/26  3:20p   51.7   51.9   51.7    97   50.9   9.0     S   1.50  14.0     S   47.9   52.1   48.3   57.9  29.852  0.00  0.00   720    10.32    772     3.9  0.28   4.1   0.092   0.000   72.5    50   52.8   71.8   9.25  .0734    0.000   203    7    100.0   10 
 5/03/26  3:30p   51.6   51.9   51.5    97   50.8  10.0     S   1.67  17.0   SSE   47.2   52.0   47.6   56.8  29.847  0.00  0.00   705    10.11    770     3.7  0.26   3.9   0.093   0.000   72.6    50   52.9   71.9   9.25  .0734    0.000   204    7    100.0   10 
 5/03/26  3:40p   51.9   52.0   51.6    97   51.1  11.0     S   1.83  16.0   SSE   47.0   52.3   47.4   56.6  29.843  0.00  0.00   696     9.98    744     3.5  0.25   3.7   0.091   0.000   72.8    50   53.1   72.2   9.25  .0733    0.000   203    7    100.0   10 
 5/03/26  3:50p   51.9   51.9   51.8    97   51.1  12.0   SSW   2.00  18.0   SSW   46.5   52.3   46.9   55.3  29.840  0.00  0.00   621     8.90    687     3.2  0.23   3.4   0.091   0.000   73.0    50   53.3   72.5   9.25  .0733    0.000   201    7    100.0   10 
 5/03/26  4:00p   51.9   51.9   51.8    97   51.1  12.0     S   2.00  18.0   SSE   46.5   52.3   46.9   55.4  29.836  0.00  0.00   627     8.99    698     3.0  0.21   3.1   0.091   0.000   73.2    50   53.4   72.7   9.25  .0732    0.013   203    7    100.0   10 
 5/03/26  4:10p   51.8   52.0   51.7    98   51.3  12.0     S   2.00  18.0     S   46.4   52.2   46.8   55.0  29.832  0.00  0.00   590     8.46    631     2.8  0.20   3.0   0.092   0.000   73.4    50   53.6   73.0   9.25  .0732    0.000   203    7    100.0   10 
 5/03/26  4:20p   51.8   52.0   51.7    98   51.3  13.0     S   2.17  18.0   SSE   46.0   52.2   46.4   54.8  29.830  0.00  0.00   595     8.53    652     2.6  0.19   2.8   0.092   0.000   73.5    50   53.7   73.1   9.25  .0732    0.000   204    7    100.0   10 
 5/03/26  4:30p   51.9   51.9   51.7    98   51.4  13.0     S   2.17  18.0     S   46.1   52.3   46.5   54.6  29.830  0.00  0.00   556     7.97    615     2.3  0.16   2.5   0.091   0.000   73.6    50   53.8   73.2   9.25  .0732    0.000   204    7    100.0   10 
 5/03/26  4:40p   52.0   52.0   51.7    98   51.5  12.0   SSW   2.00  18.0   SSE   46.6   52.4   47.0   55.0  29.834  0.00  0.00   514     7.37    580     2.2  0.16   2.4   0.090   0.000   73.8    50   54.0   73.5   9.25  .0731    0.000   201    7    100.0   10 
 5/03/26  4:50p   52.1   52.2   51.9    98   51.6  11.0   SSW   1.83  17.0     S   47.2   52.5   47.6   55.8  29.832  0.00  0.00   487     6.98    582     1.9  0.14   2.2   0.090   0.000   73.9    50   54.1   73.6   9.25  .0731    0.000   204    7    100.0   10 
 5/03/26  5:00p   51.8   52.1   51.8    98   51.3  10.0     S   1.67  16.0     S   47.4   52.2   47.8   56.2  29.832  0.00  0.00   442     6.34    494     1.6  0.11   1.7   0.092   0.000   73.6    50   53.8   73.2   9.25  .0732    0.010   203    7    100.0   10 
 5/03/26  5:10p   51.7   51.8   51.7    98   51.2  10.0   SSW   1.67  19.0   SSE   47.3   52.1   47.7   56.0  29.835  0.00  0.00   417     5.98    506     1.4  0.10   1.6   0.092   0.000   73.7    50   53.9   73.3   9.25  .0732    0.000   203    7    100.0   10 
 5/03/26  5:20p   51.7   51.8   51.7    98   51.2  11.0     S   1.83  15.0   SSE   46.7   52.1   47.1   54.7  29.837  0.00  0.00   368     5.28    399     1.3  0.09   1.3   0.092   0.000   73.8    50   54.0   73.5   9.25  .0731    0.000   204    7    100.0   10 
 5/03/26  5:30p   51.3   51.7   51.3    98   50.8  12.0     S   2.00  17.0   SSE   45.8   51.8   46.3   53.2  29.842  0.00  0.00   333     4.77    369     1.1  0.08   1.2   0.095   0.000   73.6    49   53.3   73.2   9.05  .0732    0.000   201    7    100.0   10 
 5/03/26  5:40p   51.2   51.4   51.2    98   50.7  13.0     S   2.17  19.0   SSE   45.2   51.7   45.7   51.7  29.844  0.00  0.00   282     4.04    309     0.9  0.06   1.0   0.096   0.000   73.1    49   52.8   72.5   9.05  .0733    0.000   203    7    100.0   10 
 5/03/26  5:50p   51.1   51.3   51.1    98   50.6  14.0     S   2.33  21.0   SSE   44.8   51.6   45.3   50.5  29.846  0.00  0.00   246     3.53    290     0.8  0.06   0.9   0.097   0.000   72.6    49   52.3   71.9   9.05  .0734    0.000   204    7    100.0   10 
 5/03/26  6:00p   51.2   51.3   51.1    98   50.7  15.0     S   2.50  21.0    SW   44.5   51.7   45.0   49.2  29.844  0.00  0.00   200     2.87    257     0.6  0.04   0.8   0.096   0.000   72.1    50   52.4   71.2   9.25  .0734    0.006   202    7    100.0   10 
 5/03/26  6:10p   51.3   51.4   51.3    99   51.0  16.0     S   2.67  23.0   SSE   44.4   51.8   44.9   48.2  29.840  0.00  0.00   160     2.29    209     0.6  0.04   0.6   0.095   0.000   71.6    50   52.0   70.5   9.25  .0735    0.000   204    7    100.0   10 
 5/03/26  6:20p   51.4   51.4   51.3    99   51.1  17.0     S   2.83  24.0     S   44.2   51.9   44.7   47.6  29.838  0.00  0.00   147     2.11    179     0.5  0.04   0.6   0.094   0.000   71.2    51   52.1   70.0   9.43  .0736    0.000   202    7    100.0   10 
 5/03/26  6:30p   51.6   51.7   51.4    99   51.3  18.0     S   3.00  25.0     S   44.2   52.1   44.7   47.7  29.837  0.00  0.00   163     2.34    185     0.3  0.02   0.6   0.093   0.000   70.9    51   51.9   69.6   9.43  .0736    0.000   204    7    100.0   10 
 5/03/26  6:40p   51.8   51.8   51.6    99   51.5  18.0     S   3.00  26.0   SSE   44.4   52.3   44.9   47.4  29.837  0.00  0.00   151     2.16    174     0.0  0.00   0.0   0.092   0.000   71.2    51   52.1   70.0   9.43  .0736    0.000   202    7    100.0   10 
 5/03/26  6:50p   51.7   51.8   51.7    99   51.4  18.0     S   3.00  26.0   SSE   44.3   52.2   44.8   46.3  29.843  0.00  0.00   114     1.63    139     0.0  0.00   0.0   0.092   0.000   71.4    51   52.3   70.3   9.42  .0735    0.000   204    7    100.0   10 
 5/03/26  7:00p   51.9   51.9   51.7    99   51.6  18.0     S   3.00  26.0   SSE   44.5   52.4   45.0   44.2  29.848  0.00  0.00    91     1.30    111     0.0  0.00   0.0   0.091   0.000   71.6    51   52.5   70.6   9.42  .0735    0.003   205    7    100.0   10 
 5/03/26  7:10p   52.0   52.0   51.9    99   51.7  17.0     S   2.83  24.0     S   44.9   52.5   45.4   44.5  29.855  0.00  0.00    78     1.12     91     0.0  0.00   0.0   0.090   0.000   71.8    51   52.7   70.9   9.41  .0735    0.000   204    7    100.0   10 
 5/03/26  7:20p   51.9   52.1   51.9    99   51.6  17.0     S   2.83  25.0   SSE   44.8   52.4   45.3   44.0  29.858  0.00  0.00    52     0.75     56     0.0  0.00   0.0   0.091   0.000   71.8    51   52.7   70.9   9.41  .0735    0.000   201    7    100.0   10 
 5/03/26  7:30p   51.9   52.0   51.9    99   51.6  17.0     S   2.83  23.0   SSE   44.8   52.4   45.3   43.8  29.859  0.00  0.00    42     0.60     54     0.0  0.00   0.0   0.091   0.000   71.9    51   52.8   71.0   9.41  .0735    0.000   202    7    100.0   10 
 5/03/26  7:40p   52.1   52.2   51.9    99   51.8  17.0     S   2.83  25.0   SSE   45.0   52.6   45.5   43.8  29.862  0.00  0.00    27     0.39     33     0.0  0.00   0.0   0.090   0.000   71.9    51   52.8   71.0   9.41  .0735    0.000   203    7    100.0   10 
 5/03/26  7:50p   52.1   52.1   52.0    99   51.8  18.0     S   3.00  23.0   SSE   44.7   52.6   45.2   43.4  29.863  0.00  0.00    16     0.23     19     0.0  0.00   0.0   0.090   0.000   71.9    51   52.8   71.0   9.41  .0735    0.000   202    7    100.0   10 
 5/03/26  8:00p   52.1   52.2   52.1    99   51.8  17.0     S   2.83  24.0   SSE   45.0   52.6   45.5   43.5  29.864  0.00  0.00    11     0.16     12     0.0  0.00   0.0   0.090   0.000   71.9    51   52.8   71.0   9.41  .0735    0.001   202    7    100.0   10 
 5/03/26  8:10p   52.2   52.2   52.1   100   52.2  17.0     S   2.83  26.0     S   45.1   52.7   45.6   43.6  29.867  0.00  0.00     6     0.09      7     0.0  0.00   0.0   0.089   0.000   71.9    51   52.8   71.0   9.41  .0735    0.000   203    7    100.0   10 
 5/03/26  8:20p   52.2   52.3   52.2   100   52.2  16.0     S   2.67  25.0   SSE   45.4   52.7   45.9   43.7  29.867  0.00  0.00     0     0.00      0     0.0  0.00   0.0   0.089   0.000   71.8    51   52.7   70.9   9.41  .0735    0.000   205    7    100.0   10 
 5/03/26  8:30p   52.3   52.3   52.2   100   52.3  17.0     S   2.83  24.0     S   45.2   52.8   45.7   43.6  29.874  0.00  0.00     0     0.00      0     0.0  0.00   0.0   0.088   0.000   71.8    51   52.7   70.9   9.41  .0736    0.000   200    7    100.0   10 
 5/03/26  8:40p   52.5   52.5   52.3    99   52.2  16.0     S   2.67  24.0   SSE   45.8   52.9   46.2   44.0  29.879  0.00  0.00     0     0.00      0     0.0  0.00   0.0   0.087   0.000   71.8    51   52.7   70.9   9.41  .0736    0.000   200    7    100.0   10 
 5/03/26  8:50p   52.6   52.6   52.5    99   52.3  15.0     S   2.50  22.0     S   46.2   53.0   46.6   44.4  29.882  0.00  0.00     0     0.00      0     0.0  0.00   0.0   0.086   0.000   71.8    51   52.7   70.9   9.41  .0736    0.000   203    7    100.0   10 
 5/03/26  9:00p   52.4   52.6   52.4   100   52.4  16.0     S   2.67  24.0     S   45.6   52.9   46.1   43.9  29.884  0.00  0.00     0     0.00      0     0.0  0.00   0.0   0.087   0.000   71.7    51   52.6   70.7   9.42  .0736    0.000   204    7    100.0   10 
 5/03/26  9:10p   52.3   52.4   52.3   100   52.3  17.0     S   2.83  27.0   SSE   45.2   52.8   45.7   43.6  29.888  0.00  0.00     0     0.00      0     0.0  0.00   0.0   0.088   0.000   71.7    51   52.6   70.7   9.42  .0736    0.000   203    7    100.0   10 
 5/03/26  9:20p   52.4   52.4   52.3    99   52.1  15.0     S   2.50  24.0   SSE   45.9   52.8   46.3   44.1  29.895  0.00  0.00     0     0.00      0     0.0  0.00   0.0   0.087   0.000   71.6    51   52.5   70.6   9.42  .0736    0.000   203    7    100.0   10 
 5/03/26  9:30p   52.3   52.4   52.3    99   52.0  14.0     S   2.33  23.0     S   46.1   52.7   46.5   44.2  29.900  0.00  0.00     0     0.00      0     0.0  0.00   0.0   0.088   0.000   71.6    51   52.5   70.6   9.42  .0737    0.000   204    7    100.0   10 
 5/03/26  9:40p   52.2   52.3   52.2    99   51.9  14.0     S   2.33  24.0   SSE   46.0   52.6   46.4   44.1  29.904  0.00  0.00     0     0.00      0     0.0  0.00   0.0   0.089   0.000   71.6    51   52.5   70.6   9.42  .0737    0.000   203    7    100.0   10 
 5/03/26  9:50p   52.2   52.2   52.1    99   51.9  15.0     S   2.50  23.0     S   45.7   52.6   46.1   43.9  29.903  0.00  0.00     0     0.00      0     0.0  0.00   0.0   0.089   0.000   71.5    51   52.4   70.4   9.42  .0737    0.000   201    7    100.0   10 
 5/03/26 10:00p   52.3   52.3   52.2    99   52.0  13.0     S   2.17  22.0     S   46.5   52.7   46.9   44.5  29.901  0.00  0.00     0     0.00      0     0.0  0.00   0.0   0.088   0.000   71.5    51   52.4   70.4   9.42  .0737    0.000   203    7    100.0   10 
 5/03/26 10:10p   52.4   52.4   52.3    99   52.1  12.0     S   2.00  18.0     S   47.0   52.8   47.4   44.9  29.901  0.00  0.00     0     0.00      0     0.0  0.00   0.0   0.087   0.000   71.5    51   52.4   70.4   9.42  .0737    0.000   205    7    100.0   10 
 5/03/26 10:20p   52.5   52.6   52.4    99   52.2  11.0     S   1.83  18.0   SSE   47.7   52.9   48.1   45.6  29.902  0.00  0.00     0     0.00      0     0.0  0.00   0.0   0.087   0.000   71.5    51   52.4   70.4   9.42  .0737    0.000   203    7    100.0   10 
 5/03/26 10:30p   52.6   52.6   52.5    99   52.3  11.0     S   1.83  18.0   SSE   47.8   53.0   48.2   45.7  29.904  0.00  0.00     0     0.00      0     0.0  0.00   0.0   0.086   0.000   71.4    51   52.3   70.3   9.42  .0737    0.000   203    7    100.0   10 
 5/03/26 10:40p   52.7   52.7   52.6    99   52.4  11.0     S   1.83  18.0   SSE   47.9   53.1   48.3   45.8  29.906  0.00  0.00     0     0.00      0     0.0  0.00   0.0   0.085   0.000   71.4    51   52.3   70.3   9.42  .0737    0.000   202    7    100.0   10 
 5/03/26 10:50p   52.8   52.8   52.6    99   52.5  12.0     S   2.00  21.0   SSE   47.5   53.2   47.9   45.4  29.908  0.00  0.00     0     0.00      0     0.0  0.00   0.0   0.085   0.000   71.4    51   52.3   70.3   9.42  .0737    0.000   204    7    100.0   10 
 5/03/26 11:00p   52.8   52.8   52.7    98   52.3  11.0     S   1.83  18.0     S   48.0   53.2   48.4   45.9  29.905  0.00  0.00     0     0.00      0     0.0  0.00   0.0   0.085   0.000   71.3    51   52.2   70.1   9.42  .0737    0.000   204    7    100.0   10 
 5/03/26 11:10p   52.8   52.8   52.8    98   52.3  11.0     S   1.83  19.0     S   48.0   53.2   48.4   45.9  29.907  0.00  0.00     0     0.00      0     0.0  0.00   0.0   0.085   0.000   71.3    51   52.2   70.1   9.42  .0737    0.000   203    7    100.0   10 
 5/03/26 11:20p   52.9   52.9   52.8    98   52.4  10.0     S   1.67  19.0   SSE   48.7   53.3   49.1   46.5  29.909  0.00  0.00     0     0.00      0     0.0  0.00   0.0   0.084   0.000   71.3    51   52.2   70.1   9.42  .0737    0.000   201    7    100.0   10 
 5/03/26 11:30p   53.0   53.0   52.9    98   52.5   9.0     S   1.50  15.0   ESE   49.4   53.4   49.8   47.1  29.909  0.00  0.00     0     0.00      0     0.0  0.00   0.0   0.083   0.000   71.3    51   52.2   70.1   9.42  .0737    0.000   204    7    100.0   10 
 5/03/26 11:40p   52.9   53.0   52.9    98   52.4  10.0     S   1.67  18.0     S   48.7   53.3   49.1   46.5  29.910  0.00  0.00     0     0.00      0     0.0  0.00   0.0   0.084   0.000   71.2    51   52.1   70.0   9.43  .0737    0.000   203    7    100.0   10 
 5/03/26 11:50p   52.9   53.0   52.8    98   52.4  10.0     S   1.67  17.0     S   48.7   53.3   49.1   46.5  29.914  0.00  0.00     0     0.00      0     0.0  0.00   0.0   0.084   0.000   71.2    50   51.6   69.9   9.25  .0738    0.000   204    7    100.0   10 
 5/04/26 12:00a   53.0   53.0   52.9    98   52.5  10.0     S   1.67  16.0     S   48.8   53.4   49.2   46.6  29.914  0.00  0.00     0     0.00      0     0.0  0.00   0.0   0.083   0.000   71.2    50   51.6   69.9   9.25  .0738    0.000   202    7    100.0   10 
 5/04/26 12:10a   52.9   53.0   52.9    98   52.4  11.0     S   1.83  18.0   SSE   48.1   53.3   48.5   46.0  29.913  0.00  0.00     0     0.00      0     0.0  0.00   0.0   0.084   0.000   71.2    50   51.6   69.9   9.25  .0738    0.000   203    7    100.0   10 
 5/04/26 12:20a   52.8   52.9   52.7    98   52.3  12.0     S   2.00  20.0   SSE   47.5   53.2   47.9   45.4  29.917  0.00  0.00     0     0.00      0     0.0  0.00   0.0   0.085   0.000   71.1    50   51.5   69.8   9.25  .0738    0.000   203    7    100.0   10 
 5/04/26 12:30a   52.7   52.8   52.7    98   52.2  11.0     S   1.83  17.0     S   47.9   53.1   48.3   45.8  29.918  0.00  0.00     0     0.00      0     0.0  0.00   0.0   0.085   0.000   71.1    50   51.5   69.8   9.25  .0738    0.000   203    7    100.0   10 
 5/04/26 12:40a   52.6   52.7   52.5    98   52.1  12.0     S   2.00  23.0   SSE   47.3   53.0   47.7   45.2  29.919  0.00  0.00     0     0.00      0     0.0  0.00   0.0   0.086   0.000   71.0    50   51.4   69.6   9.25  .0738    0.000   205    7    100.0   10 
 5/04/26 12:50a   52.6   52.6   52.5    98   52.1  11.0     S   1.83  19.0     S   47.8   53.0   48.2   45.7  29.921  0.00  0.00     0     0.00      0     0.0  0.00   0.0   0.086   0.000   71.0    50   51.4   69.6   9.25  .0738    0.000   203    7    100.0   10 
 5/04/26  1:00a   52.7   52.7   52.6    98   52.2  11.0     S   1.83  19.0   SSE   47.9   53.1   48.3   45.8  29.920  0.00  0.00     0     0.00      0     0.0  0.00   0.0   0.085   0.000   71.0    50   51.4   69.6   9.25  .0738    0.000   203    7    100.0   10 
 5/04/26  1:10a   52.6   52.7   52.5    98   52.1  13.0     S   2.17  23.0     S   46.9   53.0   47.3   44.9  29.923  0.00  0.00     0     0.00      0     0.0  0.00   0.0   0.086   0.000   71.0    50   51.4   69.6   9.25  .0738    0.000   201    7    100.0   10 
 5/04/26  1:20a   52.7   52.7   52.6    98   52.2  11.0     S   1.83  18.0     S   47.9   53.1   48.3   45.8  29.924  0.00  0.00     0     0.00      0     0.0  0.00   0.0   0.085   0.000   70.9    50   51.3   69.5   9.25  .0739    0.000   203    7    100.0   10 
 5/04/26  1:30a   52.7   52.7   52.6    98   52.2  11.0     S   1.83  19.0   SSE   47.9   53.1   48.3   45.8  29.925  0.00  0.00     0     0.00      0     0.0  0.00   0.0   0.085   0.000   70.9    50   51.3   69.5   9.25  .0739    0.000   202    7    100.0   10 
 5/04/26  1:40a   52.8   52.9   52.7    98   52.3  10.0     S   1.67  18.0     S   48.6   53.2   49.0   46.4  29.923  0.00  0.00     0     0.00      0     0.0  0.00   0.0   0.085   0.000   70.9    50   51.3   69.5   9.25  .0739    0.000   203    7    100.0   10 
 5/04/26  1:50a   53.0   53.0   52.8    98   52.5   9.0     S   1.50  17.0     S   49.4   53.4   49.8   47.1  29.921  0.00  0.00     0     0.00      0     0.0  0.00   0.0   0.083   0.000   70.8    50   51.2   69.3   9.25  .0739    0.000   202    7    100.0   10 
 5/04/26  2:00a   53.2   53.2   53.0    98   52.7  10.0     S   1.67  17.0   SSE   49.0   53.6   49.4   46.8  29.924  0.00  0.00     0     0.00      0     0.0  0.00   0.0   0.082   0.000   70.8    50   51.2   69.3   9.25  .0739    0.000   202    7    100.0   10 
 5/04/26  2:10a   53.2   53.2   53.1    97   52.4  11.0     S   1.83  18.0     S   48.4   53.5   48.7   46.2  29.923  0.00  0.00     0     0.00      0     0.0  0.00   0.0   0.082   0.000   70.8    50   51.2   69.3   9.25  .0739    0.000   203    7    100.0   10 
 5/04/26  2:20a   53.2   53.2   53.1    97   52.4  11.0     S   1.83  21.0     S   48.4   53.5   48.7   46.2  29.924  0.00  0.00     0     0.00      0     0.0  0.00   0.0   0.082   0.000   70.8    50   51.2   69.3   9.25  .0739    0.000   201    7    100.0   10 
 5/04/26  2:30a   53.2   53.2   53.2    97   52.4  12.0     S   2.00  20.0     S   47.9   53.5   48.2   45.7  29.924  0.00  0.00     0     0.00      0     0.0  0.00   0.0   0.082   0.000   70.7    50   51.1   69.2   9.25  .0739    0.000   203    7    100.0   10 
Email: AdamSPAM@StormwatchersRetreat.com (To send me email remove the word 'SPAM' from my email address.)